Time;durP1;ratioP1;P1;durP2;ratioP2;P2;SDS_P1;SDS_P2;PMS_P1;PMS_P2;Temp;Humidity;BMP_temperature;BMP_pressure;BME280_temperature;BME280_humidity;BME280_pressure;Samples;Min_cycle;Max_cycle;Signal;HPM_P1;HPM_P2
2022/09/24 00:01:27;;;;;;;19.50;7.10;;;11.00;1.00;;;;;;5053450;28;20513;-76
2022/09/24 00:03:59;;;;;;;12.43;6.27;;;11.00;1.00;;;;;;5040263;28;20422;-76
2022/09/24 00:06:32;;;;;;;8.90;6.80;;;11.00;1.00;;;;;;5055037;28;20440;-76
2022/09/24 00:08:58;;;;;;;8.77;6.83;;;11.00;1.00;;;;;;5035666;28;20452;-76
2022/09/24 00:11:29;;;;;;;12.30;6.63;;;11.00;1.00;;;;;;5049007;28;21013;-76
2022/09/24 00:14:11;;;;;;;12.77;6.60;;;11.00;1.00;;;;;;5047806;28;20940;-87
2022/09/24 00:16:39;;;;;;;13.73;6.50;;;11.00;1.00;;;;;;5056685;28;20440;-77
2022/09/24 00:19:05;;;;;;;9.27;6.73;;;11.00;1.00;;;;;;5047600;28;20515;-76
2022/09/24 00:21:41;;;;;;;8.07;6.17;;;11.00;1.00;;;;;;5051733;28;20411;-76
2022/09/24 00:26:48;;;;;;;17.30;6.27;;;11.00;1.00;;;;;;5053787;28;20422;-76
2022/09/24 00:26:59;;;;;;;12.57;5.60;;;10.90;1.00;;;;;;5040348;28;20932;-76
2022/09/24 00:36:18;;;;;;;9.73;6.40;;;10.80;1.00;;;;;;5044681;28;20455;-89
2022/09/24 00:38:51;;;;;;;14.43;6.50;;;10.80;1.00;;;;;;5048435;28;20467;-89
2022/09/24 00:41:58;;;;;;;23.20;6.70;;;10.80;1.00;;;;;;5038183;28;20455;-88
2022/09/24 00:44:46;;;;;;;10.10;6.10;;;10.80;1.00;;;;;;5046538;28;20418;-89
2022/09/24 00:47:46;;;;;;;9.37;6.17;;;10.80;1.00;;;;;;5054820;28;20424;-89
2022/09/24 00:50:21;;;;;;;7.70;6.00;;;10.80;1.00;;;;;;5050017;28;21059;-89
2022/09/24 00:56:19;;;;;;;20.73;6.57;;;10.80;1.00;;;;;;5044033;28;20413;-89
2022/09/24 00:59:18;;;;;;;12.40;6.40;;;10.70;1.00;;;;;;5053713;28;20474;-89
2022/09/24 01:02:16;;;;;;;8.93;6.17;;;10.70;1.00;;;;;;5051648;28;20445;-89
2022/09/24 01:04:47;;;;;;;9.17;6.23;;;10.60;1.00;;;;;;5040444;28;20426;-89
2022/09/24 01:07:48;;;;;;;11.73;6.70;;;10.50;1.00;;;;;;5052428;28;20426;-89
2022/09/24 01:10:52;;;;;;;15.43;6.77;;;10.50;1.00;;;;;;5042030;28;20462;-89
2022/09/24 01:17:13;;;;;;;16.83;6.47;;;10.40;1.00;;;;;;5043698;28;20488;-89
2022/09/24 01:20:10;;;;;;;12.43;7.50;;;10.40;1.00;;;;;;5042962;28;20519;-89
2022/09/24 01:22:46;;;;;;;9.00;6.90;;;10.30;1.00;;;;;;5053495;28;20479;-89
2022/09/24 01:25:46;;;;;;;13.63;7.23;;;10.30;1.00;;;;;;5044882;28;20439;-89
2022/09/24 01:28:28;;;;;;;8.40;7.23;;;10.20;1.00;;;;;;5041223;28;20423;-89
2022/09/24 01:31:18;;;;;;;10.63;6.10;;;10.20;1.00;;;;;;5043166;28;20496;-77
2022/09/24 01:34:04;;;;;;;10.10;7.03;;;10.10;1.00;;;;;;5050206;28;20446;-76
2022/09/24 01:36:32;;;;;;;10.73;6.77;;;10.10;1.00;;;;;;5037482;28;20430;-76
2022/09/24 01:39:00;;;;;;;15.27;6.37;;;10.10;1.00;;;;;;5040723;28;20461;-76
2022/09/24 01:41:37;;;;;;;13.10;6.53;;;10.10;1.00;;;;;;5041527;28;20457;-77
2022/09/24 01:44:06;;;;;;;8.87;6.47;;;10.00;1.00;;;;;;5045405;28;20468;-77
2022/09/24 01:46:47;;;;;;;17.87;7.60;;;9.90;1.00;;;;;;5046315;28;20426;-89
2022/09/24 01:49:52;;;;;;;16.63;6.97;;;9.90;1.00;;;;;;5033470;28;20411;-89
2022/09/24 01:52:34;;;;;;;13.13;7.90;;;9.90;1.00;;;;;;5041152;28;20538;-89
2022/09/24 01:55:20;;;;;;;17.00;7.80;;;9.90;1.00;;;;;;5050999;28;20464;-89
2022/09/24 01:58:36;;;;;;;10.37;7.60;;;9.90;1.00;;;;;;5040082;28;20517;-89
2022/09/24 02:01:08;;;;;;;12.07;7.67;;;9.70;1.00;;;;;;5020217;28;20438;-77
2022/09/24 02:03:40;;;;;;;10.47;7.30;;;9.70;1.00;;;;;;5039840;28;20474;-77
2022/09/24 02:06:35;;;;;;;14.10;8.00;;;9.60;1.00;;;;;;5049001;28;20796;-77
2022/09/24 02:09:05;;;;;;;11.27;7.97;;;9.60;1.00;;;;;;5039825;28;20480;-77
2022/09/24 02:11:50;;;;;;;14.93;8.77;;;9.60;1.00;;;;;;5044696;28;20456;-77
2022/09/24 02:14:15;;;;;;;12.90;8.00;;;9.50;1.00;;;;;;5052076;28;20430;-77
2022/09/24 02:16:48;;;;;;;10.83;8.30;;;9.50;1.00;;;;;;5038611;28;20513;-76
2022/09/24 02:19:35;;;;;;;12.83;8.07;;;9.40;1.00;;;;;;5040655;28;20583;-77
2022/09/24 02:22:06;;;;;;;12.33;7.60;;;9.30;1.00;;;;;;5047707;28;20487;-76
2022/09/24 02:24:42;;;;;;;14.17;8.23;;;9.30;1.00;;;;;;5044126;28;20453;-77
2022/09/24 02:27:11;;;;;;;16.80;8.23;;;9.20;1.00;;;;;;5047753;28;20440;-77
2022/09/24 02:29:36;;;;;;;10.70;7.70;;;9.10;1.00;;;;;;5042490;28;20437;-77
2022/09/24 02:35:24;;;;;;;15.30;8.60;;;9.00;1.00;;;;;;5050313;28;20203;-89
2022/09/24 02:38:17;;;;;;;10.30;8.60;;;9.00;1.00;;;;;;5051959;28;20426;-90
2022/09/24 02:40:47;;;;;;;11.73;8.47;;;8.90;1.00;;;;;;5032757;28;20200;-89
2022/09/24 02:43:16;;;;;;;12.63;8.50;;;8.90;1.00;;;;;;5033109;28;20418;-89
2022/09/24 02:45:46;;;;;;;12.83;8.43;;;8.80;1.00;;;;;;5042561;28;20443;-90
2022/09/24 02:48:46;;;;;;;30.70;8.60;;;8.70;1.00;;;;;;5044262;28;20477;-89
2022/09/24 02:51:29;;;;;;;11.60;8.60;;;8.70;1.00;;;;;;5049055;28;20481;-89
2022/09/24 02:54:16;;;;;;;18.07;8.87;;;8.70;1.00;;;;;;5042479;28;20833;-90
2022/09/24 02:56:47;;;;;;;15.40;9.67;;;8.60;1.00;;;;;;5041314;28;20515;-90
2022/09/24 02:59:18;;;;;;;11.50;8.53;;;8.50;1.00;;;;;;5044603;28;20457;-89
2022/09/24 03:01:47;;;;;;;15.07;8.80;;;8.50;1.00;;;;;;5043658;28;20949;-77
2022/09/24 03:04:16;;;;;;;18.50;9.30;;;8.50;1.00;;;;;;5052974;28;20471;-76
2022/09/24 03:06:46;;;;;;;11.70;9.13;;;8.50;1.00;;;;;;5055322;28;20947;-77
2022/09/24 03:09:22;;;;;;;14.73;9.20;;;8.50;1.00;;;;;;5051551;28;20512;-77
2022/09/24 03:11:52;;;;;;;12.97;8.87;;;8.40;1.00;;;;;;5045733;28;20953;-78
2022/09/24 03:14:28;;;;;;;11.20;8.80;;;8.40;1.00;;;;;;5054430;28;20817;-77
2022/09/24 03:16:59;;;;;;;13.13;8.80;;;8.30;1.00;;;;;;5052466;28;20435;-77
2022/09/24 03:19:28;;;;;;;13.50;9.77;;;8.20;1.00;;;;;;5036687;28;20473;-76
2022/09/24 03:22:04;;;;;;;14.47;10.00;;;8.20;1.00;;;;;;5048571;28;20580;-77
2022/09/24 03:24:46;;;;;;;12.90;9.47;;;8.20;1.00;;;;;;5036569;28;20756;-77
2022/09/24 03:27:16;;;;;;;13.60;9.40;;;8.20;1.00;;;;;;5050486;28;20414;-77
2022/09/24 03:33:16;;;;;;;14.93;10.33;;;8.20;1.00;;;;;;5045908;28;20434;-90
2022/09/24 03:35:46;;;;;;;22.10;9.90;;;8.20;1.00;;;;;;5056045;28;20422;-90
2022/09/24 03:38:16;;;;;;;14.43;10.27;;;8.20;1.00;;;;;;5052186;28;20438;-89
2022/09/24 03:40:42;;;;;;;14.90;9.40;;;8.20;1.00;;;;;;5048841;28;20987;-90
2022/09/24 03:43:16;;;;;;;14.77;9.73;;;8.20;1.00;;;;;;5041696;28;20439;-89
2022/09/24 03:45:47;;;;;;;12.70;9.20;;;8.20;1.00;;;;;;5050993;28;20202;-89
2022/09/24 03:48:18;;;;;;;11.90;9.10;;;8.20;1.00;;;;;;5051076;28;20434;-77
2022/09/24 03:50:47;;;;;;;21.13;10.07;;;8.20;1.00;;;;;;5045740;28;20438;-77
2022/09/24 03:53:14;;;;;;;12.50;8.87;;;8.20;1.00;;;;;;5051659;28;20431;-77
2022/09/24 03:56:05;;;;;;;12.50;9.40;;;8.10;1.00;;;;;;5038027;28;20453;-78
2022/09/24 03:58:37;;;;;;;19.20;10.03;;;8.20;1.00;;;;;;5035677;28;20398;-77
2022/09/24 04:01:19;;;;;;;13.53;9.30;;;8.20;1.00;;;;;;5043258;28;20441;-77
2022/09/24 04:03:45;;;;;;;17.43;9.97;;;8.20;1.00;;;;;;5055512;28;20893;-77
2022/09/24 04:06:25;;;;;;;12.67;9.77;;;8.30;1.00;;;;;;5051783;28;20917;-77
2022/09/24 04:08:50;;;;;;;14.40;9.87;;;8.20;1.00;;;;;;5042364;28;20758;-77
2022/09/24 04:11:16;;;;;;;16.00;9.60;;;8.20;1.00;;;;;;5048705;28;20426;-77
2022/09/24 04:13:46;;;;;;;14.50;10.47;;;8.30;1.00;;;;;;5034250;28;20176;-76
2022/09/24 04:16:16;;;;;;;12.97;10.00;;;8.40;1.00;;;;;;5044354;28;20463;-77
2022/09/24 04:22:34;;;;;;;14.50;9.20;;;8.50;1.00;;;;;;5054065;28;20433;-89
2022/09/24 04:25:29;;;;;;;13.93;10.03;;;8.50;1.00;;;;;;5051963;28;20430;-89
2022/09/24 04:31:18;;;;;;;14.10;8.97;;;8.40;1.00;;;;;;5045599;28;20413;-87
2022/09/24 04:33:53;;;;;;;12.80;9.27;;;8.40;1.00;;;;;;5038801;28;20415;-77
2022/09/24 04:36:22;;;;;;;13.20;9.37;;;8.40;1.00;;;;;;5036777;28;20509;-77
2022/09/24 04:38:58;;;;;;;13.20;9.53;;;8.40;1.00;;;;;;5053878;28;20525;-77
2022/09/24 04:41:29;;;;;;;14.80;8.63;;;8.40;1.00;;;;;;5047975;28;20946;-76
2022/09/24 04:43:57;;;;;;;13.77;10.27;;;8.40;1.00;;;;;;5047287;28;20411;-77
2022/09/24 04:46:23;;;;;;;13.57;9.37;;;8.40;1.00;;;;;;5048862;28;20467;-77
2022/09/24 04:48:59;;;;;;;12.00;9.43;;;8.50;1.00;;;;;;5045007;28;20517;-76
2022/09/24 04:51:25;;;;;;;16.53;8.80;;;8.50;1.00;;;;;;5051714;28;20429;-77
2022/09/24 04:53:52;;;;;;;12.77;9.00;;;8.40;1.00;;;;;;5043765;28;20465;-77
2022/09/24 04:56:34;;;;;;;13.53;8.83;;;8.40;1.00;;;;;;5047468;28;20437;-77
2022/09/24 04:59:10;;;;;;;15.67;10.20;;;8.40;1.00;;;;;;5033691;28;20457;-76
2022/09/24 05:01:46;;;;;;;15.77;9.57;;;8.50;1.00;;;;;;5037374;28;20948;-76
2022/09/24 05:04:17;;;;;;;17.33;9.83;;;8.40;1.00;;;;;;5043788;28;20465;-77
2022/09/24 05:06:58;;;;;;;14.90;9.33;;;8.40;1.00;;;;;;5042024;28;20414;-77
2022/09/24 05:09:30;;;;;;;12.73;9.00;;;8.40;1.00;;;;;;5040778;28;20418;-77
2022/09/24 05:12:10;;;;;;;12.63;8.73;;;8.40;1.00;;;;;;5052116;28;20426;-77
2022/09/24 05:14:36;;;;;;;12.07;8.80;;;8.50;1.00;;;;;;5053447;28;20426;-77
2022/09/24 05:17:22;;;;;;;14.80;8.20;;;8.50;1.00;;;;;;5046094;28;20529;-76
2022/09/24 05:19:48;;;;;;;15.83;9.50;;;8.50;1.00;;;;;;5044154;28;20203;-77
2022/09/24 05:22:16;;;;;;;14.37;9.10;;;8.50;1.00;;;;;;5043854;28;20426;-77
2022/09/24 05:24:42;;;;;;;16.80;8.60;;;8.50;1.00;;;;;;5043841;28;20201;-77
2022/09/24 05:27:10;;;;;;;15.83;9.53;;;8.50;1.00;;;;;;5051233;28;20407;-77
2022/09/24 05:29:38;;;;;;;17.33;9.50;;;8.60;1.00;;;;;;5045185;28;20180;-77
2022/09/24 05:32:06;;;;;;;14.87;10.57;;;8.60;1.00;;;;;;5037320;28;20955;-76
2022/09/24 05:34:44;;;;;;;12.50;9.00;;;8.60;1.00;;;;;;5039130;28;20459;-77
2022/09/24 05:37:17;;;;;;;14.80;10.20;;;8.60;1.00;;;;;;5039972;28;20445;-77
2022/09/24 05:42:59;;;;;;;19.27;10.07;;;8.60;1.00;;;;;;5045199;28;20416;-77
2022/09/24 05:45:24;;;;;;;24.10;10.00;;;8.70;1.00;;;;;;5039593;28;20426;-77
2022/09/24 05:51:28;;;;;;;12.47;9.20;;;8.60;1.00;;;;;;5038701;28;20191;-76
2022/09/24 05:57:47;;;;;;;15.40;8.47;;;8.80;1.00;;;;;;5052518;28;20927;-89
2022/09/24 06:03:53;;;;;;;15.40;10.40;;;9.00;1.00;;;;;;5042167;28;20996;-79
2022/09/24 06:06:18;;;;;;;14.83;9.67;;;9.10;1.00;;;;;;5051069;28;20421;-78
2022/09/24 06:08:44;;;;;;;19.00;10.03;;;9.20;1.00;;;;;;5041648;28;20660;-78
2022/09/24 06:11:11;;;;;;;10.80;9.40;;;9.50;1.00;;;;;;5050794;28;20172;-78
2022/09/24 06:13:38;;;;;;;13.43;9.83;;;9.70;1.00;;;;;;5050720;28;20657;-77
2022/09/24 06:16:07;;;;;;;21.37;9.77;;;9.70;1.00;;;;;;5036391;28;20466;-77
2022/09/24 06:18:35;;;;;;;18.60;9.33;;;9.80;1.00;;;;;;5041418;28;20426;-78
2022/09/24 06:21:10;;;;;;;15.60;10.20;;;9.90;1.00;;;;;;5040148;28;20434;-78
2022/09/24 06:23:37;;;;;;;22.27;10.57;;;10.00;1.00;;;;;;5033329;28;20914;-77
2022/09/24 06:26:06;;;;;;;14.80;9.37;;;10.10;1.00;;;;;;5050433;28;20893;-79
2022/09/24 06:28:33;;;;;;;12.27;9.03;;;10.20;1.00;;;;;;5046555;28;20452;-77
2022/09/24 06:31:05;;;;;;;11.40;8.30;;;10.30;1.00;;;;;;5039590;28;20422;-77
2022/09/24 06:34:22;;;;;;;10.97;8.57;;;10.30;1.00;;;;;;5042768;28;20427;-88
2022/09/24 06:36:52;;;;;;;22.03;8.20;;;10.40;1.00;;;;;;5051304;28;20433;-88
2022/09/24 06:39:40;;;;;;;16.30;9.80;;;10.50;1.00;;;;;;5035988;28;20472;-87
2022/09/24 06:52:12;;;;;;;16.80;8.83;;;11.00;1.00;;;;;;5036906;28;20453;-86
2022/09/24 06:54:38;;;;;;;13.20;8.90;;;11.20;1.00;;;;;;5036969;28;20423;-86
2022/09/24 06:57:52;;;;;;;13.53;8.80;;;11.50;1.00;;;;;;5045738;28;20578;-86
2022/09/24 07:01:05;;;;;;;14.23;8.47;;;11.70;1.00;;;;;;5042844;28;20536;-87
2022/09/24 07:03:35;;;;;;;16.20;9.00;;;11.80;1.00;;;;;;5037019;28;20463;-87
2022/09/24 07:07:28;;;;;;;19.90;10.73;;;11.90;1.00;;;;;;5052856;28;20433;-86
2022/09/24 07:09:29;;;;;;;12.60;9.13;;;12.00;1.00;;;;;;5037009;28;20461;-87
2022/09/24 07:12:16;;;;;;;15.70;10.13;;;12.10;1.00;;;;;;5037573;28;20430;-86
2022/09/24 07:14:51;;;;;;;15.50;9.40;;;12.20;1.00;;;;;;5040133;28;20466;-87
2022/09/24 07:17:17;;;;;;;17.17;10.40;;;12.30;1.00;;;;;;5035719;28;20425;-87
2022/09/24 07:23:23;;;;;;;17.03;11.07;;;12.50;1.00;;;;;;5036883;28;20613;-87
2022/09/24 07:29:10;;;;;;;12.90;9.97;;;13.00;1.00;;;;;;5052981;28;20425;-87
2022/09/24 07:32:10;;;;;;;20.20;10.43;;;13.20;1.00;;;;;;5048366;28;20467;-87
2022/09/24 07:35:10;;;;;;;20.50;11.13;;;13.50;1.00;;;;;;5052055;28;20183;-88
2022/09/24 07:40:58;;;;;;;17.27;10.30;;;13.80;1.00;;;;;;5050975;28;20535;-87
2022/09/24 07:43:24;;;;;;;18.87;11.57;;;13.90;1.00;;;;;;5047423;28;20434;-91
2022/09/24 07:45:51;;;;;;;18.20;10.80;;;14.00;1.00;;;;;;5044915;28;20184;-87
2022/09/24 07:48:35;;;;;;;20.47;9.67;;;14.10;1.00;;;;;;5040512;28;20446;-84
2022/09/24 07:51:17;;;;;;;16.43;9.60;;;14.20;1.00;;;;;;5051821;28;20440;-91
2022/09/24 07:53:59;;;;;;;16.60;9.73;;;14.30;1.00;;;;;;5053795;28;20441;-92
2022/09/24 07:56:46;;;;;;;13.80;9.30;;;14.60;1.00;;;;;;5049707;28;20422;-89
2022/09/24 07:59:19;;;;;;;11.33;8.70;;;14.80;1.00;;;;;;5040261;28;20469;-89
2022/09/24 08:01:53;;;;;;;11.40;8.60;;;15.00;1.00;;;;;;5053618;28;20413;-91
2022/09/24 08:04:19;;;;;;;16.93;9.40;;;15.20;1.00;;;;;;5051790;28;20440;-83
2022/09/24 08:07:16;;;;;;;14.00;9.60;;;15.40;1.00;;;;;;5052718;28;20438;-87
2022/09/24 08:10:10;;;;;;;11.27;8.90;;;15.60;1.00;;;;;;5049077;28;20487;-88
2022/09/24 08:13:04;;;;;;;13.40;9.07;;;15.80;1.00;;;;;;5048638;28;20434;-81
2022/09/24 08:15:34;;;;;;;13.33;8.67;;;16.00;1.00;;;;;;5046253;28;20469;-86
2022/09/24 08:18:34;;;;;;;12.97;8.47;;;16.20;1.00;;;;;;5049936;28;20905;-82
2022/09/24 08:21:22;;;;;;;14.70;9.23;;;16.50;1.00;;;;;;5052686;28;20414;-82
2022/09/24 08:24:05;;;;;;;14.20;9.63;;;16.70;1.00;;;;;;5040861;28;20399;-78
2022/09/24 08:26:35;;;;;;;14.93;9.00;;;16.70;1.00;;;;;;5037511;28;20440;-78
2022/09/24 08:29:00;;;;;;;14.53;8.40;;;16.90;1.00;;;;;;5047410;28;20446;-83
2022/09/24 08:31:30;;;;;;;16.07;9.33;;;17.00;1.00;;;;;;5042923;28;20399;-78
2022/09/24 08:34:05;;;;;;;17.97;8.50;;;17.10;1.00;;;;;;5048445;28;20567;-84
2022/09/24 08:36:47;;;;;;;12.90;8.53;;;17.10;1.00;;;;;;5037707;28;20410;-89
2022/09/24 08:39:14;;;;;;;10.27;8.57;;;17.00;1.00;;;;;;5052026;28;20989;-88
2022/09/24 08:42:28;;;;;;;13.87;8.60;;;16.90;1.00;;;;;;5051529;28;20401;-84
2022/09/24 08:48:00;;;;;;;12.80;8.40;;;16.40;1.00;;;;;;5054479;28;20793;-85
2022/09/24 08:50:34;;;;;;;11.43;8.60;;;16.20;1.00;;;;;;5051422;28;20416;-84
2022/09/24 08:57:16;;;;;;;10.93;8.10;;;15.90;1.00;;;;;;5052746;28;20426;-87
2022/09/24 09:03:40;;;;;;;12.43;8.93;;;15.80;1.00;;;;;;5042980;28;20455;-87
2022/09/24 09:10:27;;;;;;;9.40;7.63;;;15.90;1.00;;;;;;5040668;28;20402;-86
2022/09/24 09:13:27;;;;;;;12.93;8.53;;;16.00;1.00;;;;;;5002914;28;20885;-87
2022/09/24 09:16:46;;;;;;;13.73;7.43;;;16.00;1.00;;;;;;5011947;28;20418;-86
2022/09/24 09:22:40;;;;;;;11.70;8.20;;;16.30;1.00;;;;;;5011584;28;20423;-82
2022/09/24 09:25:27;;;;;;;17.33;8.30;;;16.50;1.00;;;;;;5011656;28;20424;-81
2022/09/24 09:28:16;;;;;;;10.70;8.10;;;16.60;1.00;;;;;;4993461;28;20403;-77
2022/09/24 09:31:10;;;;;;;14.50;7.50;;;16.70;1.00;;;;;;5011813;28;20498;-75
2022/09/24 09:33:59;;;;;;;12.70;6.90;;;16.70;1.00;;;;;;5010921;28;20437;-75
2022/09/24 09:36:45;;;;;;;17.60;8.33;;;16.70;1.00;;;;;;5012081;28;20406;-75
2022/09/24 09:39:31;;;;;;;13.43;6.00;;;16.80;1.00;;;;;;5007656;28;20439;-75
2022/09/24 09:42:03;;;;;;;11.70;8.20;;;17.00;1.00;;;;;;5010886;28;20415;-75
2022/09/24 09:44:35;;;;;;;11.70;7.20;;;17.20;1.00;;;;;;5008023;28;20415;-75
2022/09/24 09:47:39;;;;;;;16.93;7.30;;;17.50;1.00;;;;;;5034332;28;20386;-74
2022/09/24 09:50:17;;;;;;;14.80;6.63;;;17.60;1.00;;;;;;5041995;28;20442;-75
2022/09/24 09:52:43;;;;;;;12.83;6.63;;;17.80;1.00;;;;;;5047192;28;20455;-87
2022/09/24 09:59:06;;;;;;;8.50;6.77;;;18.30;1.00;;;;;;5041465;28;20400;-88
2022/09/24 10:02:22;;;;;;;13.53;7.40;;;18.30;1.00;;;;;;5038790;28;20448;-88
2022/09/24 10:05:40;;;;;;;8.30;6.43;;;18.40;1.00;;;;;;5033848;28;20410;-87
2022/09/24 10:08:24;;;;;;;11.17;7.30;;;18.70;1.00;;;;;;5038246;28;20408;-87
2022/09/24 10:14:51;;;;;;;18.87;7.10;;;19.20;1.00;;;;;;5049802;28;20520;-87
2022/09/24 10:20:38;;;;;;;9.70;6.67;;;19.70;1.00;;;;;;5055084;28;20995;-87
2022/09/24 10:23:12;;;;;;;13.87;7.53;;;20.00;1.00;;;;;;5057159;28;20437;-75
2022/09/24 10:25:51;;;;;;;8.27;6.13;;;20.10;1.00;;;;;;5047831;28;20180;-75
2022/09/24 10:31:16;;;;;;;7.97;6.23;;;20.60;1.00;;;;;;5050239;28;20448;-75
2022/09/24 10:33:45;;;;;;;7.27;5.83;;;20.90;1.00;;;;;;5051206;28;20404;-75
2022/09/24 10:39:41;;;;;;;6.43;5.03;;;21.30;1.00;;;;;;5052122;28;20466;-88
2022/09/24 10:42:28;;;;;;;11.23;5.37;;;21.20;1.00;;;;;;5044700;28;20474;-87
2022/09/24 10:45:14;;;;;;;7.87;5.40;;;21.00;1.00;;;;;;5057204;28;20411;-87
2022/09/24 10:51:38;;;;;;;8.07;5.60;;;21.00;1.00;;;;;;5047322;28;20387;-86
2022/09/24 10:54:22;;;;;;;5.57;4.40;;;21.00;1.00;;;;;;5045983;28;20450;-75
2022/09/24 10:56:52;;;;;;;7.70;5.87;;;20.90;1.00;;;;;;5045151;28;20377;-75
2022/09/24 10:59:35;;;;;;;6.90;5.17;;;20.80;1.00;;;;;;5049079;28;20524;-74
2022/09/24 11:02:12;;;;;;;10.90;5.30;;;20.70;1.00;;;;;;5047074;28;20411;-75
2022/09/24 11:04:54;;;;;;;7.33;4.90;;;20.80;1.00;;;;;;5046781;28;20423;-74
2022/09/24 11:07:45;;;;;;;15.47;5.40;;;20.80;1.00;;;;;;5041247;28;20462;-86
2022/09/24 11:10:53;;;;;;;14.23;5.17;;;20.90;1.00;;;;;;5053267;28;20473;-86
2022/09/24 11:13:47;;;;;;;5.70;4.53;;;21.00;1.00;;;;;;5047140;28;20403;-87
2022/09/24 11:19:37;;;;;;;7.20;5.40;;;21.50;1.00;;;;;;5054927;28;20509;-86
2022/09/24 11:22:09;;;;;;;8.63;4.70;;;21.60;1.00;;;;;;5052149;28;20471;-75
2022/09/24 11:24:45;;;;;;;15.73;4.60;;;21.90;1.00;;;;;;5041119;28;20403;-74
2022/09/24 11:27:26;;;;;;;7.27;4.50;;;22.20;1.00;;;;;;5050240;28;20432;-74
2022/09/24 11:30:10;;;;;;;5.27;4.50;;;22.10;1.00;;;;;;5045838;28;20451;-74
2022/09/24 11:33:20;;;;;;;10.50;4.90;;;22.10;1.00;;;;;;5047613;28;20421;-75
2022/09/24 11:36:25;;;;;;;5.80;3.90;;;22.30;1.00;;;;;;5051787;28;20457;-75
2022/09/24 11:39:34;;;;;;;7.20;4.60;;;22.30;1.00;;;;;;5042543;28;20430;-85
2022/09/24 11:42:15;;;;;;;4.30;3.90;;;22.30;1.00;;;;;;5036371;28;20400;-85
2022/09/24 11:48:10;;;;;;;7.60;5.10;;;22.10;1.00;;;;;;5036210;28;21011;-86
2022/09/24 11:54:02;;;;;;;12.77;4.90;;;22.10;1.00;;;;;;5048991;28;20440;-75
2022/09/24 11:56:40;;;;;;;7.10;4.40;;;22.30;1.00;;;;;;5051996;28;20430;-75
2022/09/24 11:59:15;;;;;;;6.20;4.43;;;22.40;1.00;;;;;;5038351;28;20457;-75
2022/09/24 12:01:48;;;;;;;6.57;4.13;;;22.50;1.00;;;;;;5054703;28;20406;-75
2022/09/24 12:04:47;;;;;;;6.17;4.40;;;22.60;1.00;;;;;;5046722;28;20464;-75
2022/09/24 12:10:44;;;;;;;10.97;3.67;;;23.10;1.00;;;;;;5035522;28;20451;-86
2022/09/24 12:16:36;;;;;;;3.30;3.00;;;23.40;1.00;;;;;;5050426;28;20524;-82
2022/09/24 12:19:17;;;;;;;4.93;3.70;;;23.60;1.00;;;;;;5054555;28;20933;-82
2022/09/24 12:21:45;;;;;;;4.97;3.40;;;23.60;1.00;;;;;;5046021;28;20461;-82
2022/09/24 12:24:44;;;;;;;6.80;3.10;;;23.60;1.00;;;;;;5038644;28;20413;-83
2022/09/24 12:27:25;;;;;;;6.53;3.37;;;23.70;1.00;;;;;;5043847;28;20424;-76
2022/09/24 12:33:04;;;;;;;3.37;3.07;;;24.10;1.00;;;;;;5040331;28;20430;-76
2022/09/24 12:36:00;;;;;;;3.50;3.20;;;23.90;1.00;;;;;;5050168;28;20431;-76
2022/09/24 12:38:34;;;;;;;4.50;3.50;;;23.90;1.00;;;;;;5043199;28;20436;-75
2022/09/24 12:41:26;;;;;;;4.03;3.17;;;23.80;1.00;;;;;;5051836;28;20908;-75
2022/09/24 12:44:16;;;;;;;6.33;3.20;;;23.80;1.00;;;;;;5051960;28;20477;-75
2022/09/24 12:46:51;;;;;;;5.67;3.37;;;23.70;1.00;;;;;;5043395;28;20459;-75
2022/09/24 12:49:31;;;;;;;13.33;3.70;;;23.80;1.00;;;;;;5051014;28;20465;-75
2022/09/24 12:52:03;;;;;;;7.03;2.87;;;23.80;1.00;;;;;;5051415;28;20478;-75
2022/09/24 12:54:32;;;;;;;3.97;2.60;;;23.60;1.00;;;;;;5037422;28;20440;-75
2022/09/24 12:57:24;;;;;;;3.57;2.70;;;23.60;1.00;;;;;;5052219;28;20498;-75
2022/09/24 12:59:56;;;;;;;4.10;2.80;;;23.60;1.00;;;;;;5037702;28;20463;-75
2022/09/24 13:02:47;;;;;;;3.57;2.30;;;23.40;1.00;;;;;;5050794;28;20928;-75
2022/09/24 13:05:26;;;;;;;2.73;2.57;;;23.40;1.00;;;;;;5042504;28;20442;-74
2022/09/24 13:08:23;;;;;;;6.27;2.60;;;23.60;1.00;;;;;;5042364;28;20763;-74
2022/09/24 13:11:04;;;;;;;3.93;2.57;;;23.30;1.00;;;;;;5044796;28;20967;-74
2022/09/24 13:13:34;;;;;;;3.80;2.30;;;23.40;1.00;;;;;;5047291;28;20956;-74
2022/09/24 13:16:19;;;;;;;3.53;2.43;;;23.50;1.00;;;;;;5045788;28;20446;-74
2022/09/24 13:18:57;;;;;;;7.10;2.83;;;23.50;1.00;;;;;;5049190;28;20457;-75
2022/09/24 13:21:28;;;;;;;4.57;2.70;;;23.60;1.00;;;;;;5052174;28;20991;-74
2022/09/24 13:23:55;;;;;;;2.57;2.37;;;23.70;1.00;;;;;;5045161;28;20516;-75
2022/09/24 13:26:24;;;;;;;2.93;2.17;;;23.80;1.00;;;;;;5052418;28;20915;-75
2022/09/24 13:29:20;;;;;;;5.17;1.90;;;24.00;1.00;;;;;;5053870;28;20404;-76
2022/09/24 13:31:53;;;;;;;5.20;2.60;;;24.20;1.00;;;;;;5051103;28;20436;-76
2022/09/24 13:34:35;;;;;;;3.47;2.43;;;24.40;1.00;;;;;;5039944;28;20430;-76
2022/09/24 13:37:21;;;;;;;3.00;2.70;;;24.40;1.00;;;;;;5047241;28;20450;-75
2022/09/24 13:39:57;;;;;;;2.50;2.30;;;24.20;1.00;;;;;;5045271;28;20456;-74
2022/09/24 13:42:42;;;;;;;5.97;3.27;;;24.10;1.00;;;;;;5036068;28;20442;-74
2022/09/24 13:45:18;;;;;;;4.53;2.30;;;24.10;1.00;;;;;;5036799;28;20517;-74
2022/09/24 13:47:53;;;;;;;3.40;2.13;;;24.10;1.00;;;;;;5038218;28;20457;-74
2022/09/24 13:50:25;;;;;;;5.97;2.37;;;24.00;1.00;;;;;;5051974;28;20504;-75
2022/09/24 13:52:58;;;;;;;4.63;2.40;;;23.90;1.00;;;;;;5042969;28;20843;-74
2022/09/24 13:55:33;;;;;;;6.03;2.60;;;23.50;1.00;;;;;;5053738;28;20498;-74
2022/09/24 13:57:59;;;;;;;3.63;2.30;;;23.20;1.00;;;;;;5051874;28;20438;-74
2022/09/24 14:00:27;;;;;;;10.30;2.43;;;23.10;1.00;;;;;;5050711;28;20527;-74
2022/09/24 14:03:04;;;;;;;2.50;1.70;;;23.00;1.00;;;;;;5052564;28;20706;-74
2022/09/24 14:05:37;;;;;;;14.03;2.90;;;22.90;1.00;;;;;;5044492;28;20447;-74
2022/09/24 14:08:12;;;;;;;2.63;2.53;;;22.80;1.00;;;;;;5053377;28;20414;-74
2022/09/24 14:11:13;;;;;;;3.37;3.07;;;22.70;1.00;;;;;;5048583;28;20517;-74
2022/09/24 14:13:44;;;;;;;3.07;2.77;;;22.40;1.00;;;;;;5011381;28;20477;-75
2022/09/24 14:16:30;;;;;;;3.17;2.93;;;22.30;1.00;;;;;;4996918;28;20454;-75
2022/09/24 14:19:04;;;;;;;9.27;3.90;;;22.20;1.00;;;;;;5006552;28;20454;-82
2022/09/24 14:22:08;;;;;;;4.33;3.10;;;22.10;1.00;;;;;;5007421;28;20461;-84
2022/09/24 14:24:51;;;;;;;7.50;3.93;;;22.00;1.00;;;;;;5008417;28;20433;-85
2022/09/24 14:27:20;;;;;;;7.63;3.23;;;21.80;1.00;;;;;;5007800;28;20429;-85
2022/09/24 14:30:06;;;;;;;4.17;3.33;;;21.60;1.00;;;;;;5009744;28;20420;-84
2022/09/24 14:35:54;;;;;;;3.70;3.27;;;21.50;1.00;;;;;;5008981;28;20389;-81
2022/09/24 14:38:34;;;;;;;6.30;3.50;;;21.30;1.00;;;;;;5003192;28;20857;-81
2022/09/24 14:41:21;;;;;;;8.47;3.77;;;21.10;1.00;;;;;;4991936;28;20547;-81
2022/09/24 14:44:27;;;;;;;5.03;3.30;;;20.90;1.00;;;;;;5007990;28;20425;-84
2022/09/24 14:47:24;;;;;;;4.53;3.20;;;20.80;1.00;;;;;;5005899;28;20467;-84
2022/09/24 14:56:35;;;;;;;4.57;3.50;;;20.60;1.00;;;;;;5046570;28;20454;-83
2022/09/24 14:59:40;;;;;;;8.73;3.40;;;20.50;1.00;;;;;;5052689;28;20429;-83
2022/09/24 15:02:29;;;;;;;4.33;3.00;;;20.50;1.00;;;;;;5049536;28;20438;-85
2022/09/24 15:05:21;;;;;;;5.80;3.87;;;20.50;1.00;;;;;;5044298;28;20416;-88
2022/09/24 15:07:47;;;;;;;10.40;3.50;;;20.50;1.00;;;;;;5056719;28;20505;-86
2022/09/24 15:10:20;;;;;;;4.37;3.97;;;20.50;1.00;;;;;;5056658;28;20516;-80
2022/09/24 15:12:53;;;;;;;3.63;3.33;;;20.40;1.00;;;;;;5063240;28;20181;-80
2022/09/24 15:15:35;;;;;;;9.90;3.43;;;20.30;1.00;;;;;;5049753;28;20476;-83
2022/09/24 15:18:11;;;;;;;7.57;3.07;;;20.40;1.00;;;;;;5046407;28;20439;-81
2022/09/24 15:20:47;;;;;;;9.93;3.87;;;20.40;1.00;;;;;;5054785;28;20463;-80
2022/09/24 15:23:17;;;;;;;9.10;4.30;;;20.40;1.00;;;;;;5054347;28;20521;-80
2022/09/24 15:25:43;;;;;;;29.27;10.17;;;20.40;1.00;;;;;;5043637;28;20431;-81
2022/09/24 15:28:17;;;;;;;10.30;4.13;;;20.40;1.00;;;;;;5053751;28;20466;-81
2022/09/24 15:30:47;;;;;;;5.30;3.90;;;20.40;1.00;;;;;;5038715;28;20182;-81
2022/09/24 15:33:17;;;;;;;6.10;4.00;;;20.40;1.00;;;;;;5053656;28;20420;-81
2022/09/24 15:35:53;;;;;;;10.93;4.30;;;20.50;1.00;;;;;;5046324;28;20479;-81
2022/09/24 15:38:35;;;;;;;5.13;4.63;;;20.70;1.00;;;;;;5053247;28;20918;-82
2022/09/24 15:41:11;;;;;;;6.70;4.60;;;20.80;1.00;;;;;;5051450;28;20438;-82
2022/09/24 15:43:47;;;;;;;12.90;5.20;;;20.80;1.00;;;;;;5058704;28;20541;-82
2022/09/24 15:46:12;;;;;;;12.73;3.77;;;20.90;1.00;;;;;;5051284;28;20517;-88
2022/09/24 15:49:05;;;;;;;6.70;4.80;;;20.90;1.00;;;;;;5056112;28;20431;-87
2022/09/24 15:52:23;;;;;;;11.37;5.10;;;20.90;1.00;;;;;;5050766;28;20532;-88
2022/09/24 15:55:23;;;;;;;5.43;4.00;;;20.70;1.00;;;;;;5036305;28;20400;-88
2022/09/24 15:57:54;;;;;;;13.07;4.50;;;20.60;1.00;;;;;;5046628;28;20397;-80
2022/09/24 16:00:21;;;;;;;9.73;6.10;;;20.60;1.00;;;;;;5050644;28;20513;-82
2022/09/24 16:03:05;;;;;;;6.90;4.80;;;20.50;1.00;;;;;;5040701;28;20435;-82
2022/09/24 16:05:31;;;;;;;7.07;4.57;;;20.40;1.00;;;;;;5043738;28;20426;-81